createdAt,value
2017-04-01T00:00:23.780Z,0
2017-04-01T00:00:49.883Z,0
2017-04-01T00:01:15.964Z,0
2017-04-01T00:01:42.048Z,0
2017-04-01T00:02:08.129Z,0
2017-04-01T00:02:34.212Z,0
2017-04-01T00:03:00.292Z,0
2017-04-01T00:03:26.397Z,0
2017-04-01T00:03:52.479Z,0
2017-04-01T00:04:18.561Z,0
2017-04-01T00:04:44.642Z,0
2017-04-01T00:05:10.727Z,0
2017-04-01T00:05:36.809Z,0
2017-04-01T00:06:02.891Z,0
2017-04-01T00:06:28.975Z,0
2017-04-01T00:06:55.057Z,0
2017-04-01T00:07:21.140Z,0
2017-04-01T00:07:47.222Z,0
2017-04-01T00:08:13.302Z,0
2017-04-01T00:08:39.387Z,0
2017-04-01T00:09:05.469Z,0
2017-04-01T00:09:31.549Z,0
2017-04-01T00:09:57.633Z,0
2017-04-01T00:10:23.718Z,0
2017-04-01T00:10:49.799Z,0
2017-04-01T00:11:15.885Z,0
2017-04-01T00:11:41.972Z,0
2017-04-01T00:12:08.049Z,0
2017-04-01T00:12:34.128Z,0
2017-04-01T00:13:00.210Z,0
2017-04-01T00:13:26.291Z,0
2017-04-01T00:13:52.375Z,0
2017-04-01T00:14:18.452Z,0
2017-04-01T00:14:44.536Z,0
2017-04-01T00:15:10.618Z,0
2017-04-01T00:15:36.701Z,0
2017-04-01T00:16:02.782Z,0
2017-04-01T00:16:28.889Z,0
2017-04-01T00:16:54.972Z,0
2017-04-01T00:17:21.055Z,0
2017-04-01T00:17:47.161Z,0
2017-04-01T00:18:13.243Z,0
2017-04-01T00:18:39.333Z,0
2017-04-01T00:19:05.407Z,0
2017-04-01T00:19:31.492Z,0
2017-04-01T00:19:57.600Z,0
2017-04-01T00:20:23.681Z,0
2017-04-01T00:20:49.788Z,0
2017-04-01T00:21:15.869Z,0
2017-04-01T00:21:41.954Z,0
2017-04-01T00:22:08.035Z,0
2017-04-01T00:22:34.119Z,0
2017-04-01T00:23:00.203Z,0
2017-04-01T00:23:26.305Z,0
2017-04-01T00:23:52.385Z,0
2017-04-01T00:24:18.468Z,0
2017-04-01T00:24:44.551Z,0
2017-04-01T00:25:10.634Z,0
2017-04-01T00:25:36.716Z,0
2017-04-01T00:26:02.824Z,0
2017-04-01T00:26:28.904Z,0
2017-04-01T00:26:54.987Z,0
2017-04-01T00:27:21.072Z,0
2017-04-01T00:27:47.180Z,0
2017-04-01T00:28:13.262Z,0
2017-04-01T00:28:39.345Z,0
2017-04-01T00:29:05.427Z,0
2017-04-01T00:29:31.510Z,0
2017-04-01T00:29:57.590Z,0
2017-04-01T00:30:23.676Z,0
2017-04-01T00:30:49.758Z,0
2017-04-01T00:31:15.840Z,0
2017-04-01T00:31:41.943Z,0
2017-04-01T00:32:08.027Z,0
2017-04-01T00:32:34.131Z,0
2017-04-01T00:33:00.212Z,0
2017-04-01T00:33:26.296Z,0
2017-04-01T00:33:52.379Z,0
2017-04-01T00:34:18.465Z,0
2017-04-01T00:34:44.542Z,0
2017-04-01T00:35:10.625Z,0
2017-04-01T00:35:36.708Z,0
2017-04-01T00:36:02.792Z,0
2017-04-01T00:36:28.873Z,0
2017-04-01T00:36:54.957Z,0
2017-04-01T00:37:21.037Z,0
2017-04-01T00:37:47.141Z,0
2017-04-01T00:38:13.224Z,0
2017-04-01T00:38:39.307Z,0
2017-04-01T00:39:05.390Z,0
2017-04-01T00:39:31.471Z,0
2017-04-01T00:39:57.554Z,0
2017-04-01T00:40:23.639Z,0
2017-04-01T00:40:49.744Z,0
2017-04-01T00:41:15.851Z,0
2017-04-01T00:41:41.931Z,0
2017-04-01T00:42:08.015Z,0
2017-04-01T00:42:34.097Z,0
2017-04-01T00:43:00.181Z,0
2017-04-01T00:43:26.285Z,0
2017-04-01T00:43:52.368Z,0
2017-04-01T00:44:18.495Z,0
2017-04-01T00:44:44.576Z,0
2017-04-01T00:45:10.680Z,0
2017-04-01T00:45:36.763Z,0
2017-04-01T00:46:02.847Z,0
2017-04-01T00:46:28.951Z,0
2017-04-01T00:46:55.034Z,0
2017-04-01T00:47:21.117Z,0
2017-04-01T00:47:47.226Z,0
2017-04-01T00:48:13.306Z,0
2017-04-01T00:48:39.414Z,0
2017-04-01T00:49:05.496Z,0
2017-04-01T00:49:31.579Z,0
2017-04-01T00:49:57.658Z,0
2017-04-01T00:50:23.739Z,0
2017-04-01T00:50:49.820Z,0
2017-04-01T00:51:15.901Z,0
2017-04-01T00:51:41.986Z,0
2017-04-01T00:52:08.064Z,0
2017-04-01T00:52:34.147Z,0
2017-04-01T00:53:00.228Z,0
2017-04-01T00:53:26.314Z,0
2017-04-01T00:53:52.394Z,0
2017-04-01T00:54:18.478Z,0
2017-04-01T00:54:44.558Z,0
2017-04-01T00:55:10.639Z,0
2017-04-01T00:55:36.721Z,0
2017-04-01T00:56:02.803Z,0
2017-04-01T00:56:28.888Z,0
2017-04-01T00:56:54.972Z,0
2017-04-01T00:57:21.055Z,0
2017-04-01T00:57:47.139Z,0
2017-04-01T00:58:13.219Z,0
2017-04-01T00:58:39.301Z,0
2017-04-01T00:59:05.385Z,0
2017-04-01T00:59:31.466Z,0
2017-04-01T00:59:57.573Z,0
2017-04-01T01:00:23.679Z,0
2017-04-01T01:00:49.760Z,0
2017-04-01T01:01:15.842Z,0
2017-04-01T01:01:41.947Z,0
2017-04-01T01:02:08.026Z,0
2017-04-01T01:02:34.107Z,0
2017-04-01T01:03:00.191Z,0
2017-04-01T01:03:26.272Z,0
2017-04-01T01:03:52.355Z,0
2017-04-01T01:04:18.461Z,0
2017-04-01T01:04:44.543Z,0
2017-04-01T01:05:10.626Z,0
2017-04-01T01:05:36.710Z,0
2017-04-01T01:06:02.794Z,0
2017-04-01T01:06:28.901Z,0
2017-04-01T01:06:55.006Z,0
2017-04-01T01:07:21.088Z,0
2017-04-01T01:07:47.170Z,0
2017-04-01T01:08:13.254Z,0
2017-04-01T01:08:39.334Z,0
2017-04-01T01:09:05.440Z,0
2017-04-01T01:09:31.521Z,0
2017-04-01T01:09:57.605Z,0
2017-04-01T01:10:23.687Z,0
2017-04-01T01:10:49.770Z,0
2017-04-01T01:11:15.853Z,0
2017-04-01T01:11:41.937Z,0
2017-04-01T01:12:08.018Z,0
2017-04-01T01:12:34.123Z,0
2017-04-01T01:13:00.203Z,0
2017-04-01T01:13:26.286Z,0
2017-04-01T01:13:52.372Z,0
2017-04-01T01:14:18.458Z,0
2017-04-01T01:14:44.560Z,0
2017-04-01T01:15:10.645Z,0
2017-04-01T01:15:36.727Z,0
2017-04-01T01:16:02.808Z,0
2017-04-01T01:16:28.891Z,0
2017-04-01T01:16:54.995Z,0
2017-04-01T01:17:21.139Z,0
2017-04-01T01:17:47.185Z,0
2017-04-01T01:18:13.266Z,0
2017-04-01T01:18:39.371Z,0
2017-04-01T01:19:05.457Z,0
2017-04-01T01:19:31.536Z,0
2017-04-01T01:19:57.618Z,0
2017-04-01T01:20:23.701Z,0
2017-04-01T01:20:49.783Z,0
2017-04-01T01:21:15.865Z,0
2017-04-01T01:21:41.971Z,0
2017-04-01T01:22:08.057Z,0
2017-04-01T01:22:34.138Z,0
2017-04-01T01:23:00.220Z,0
2017-04-01T01:23:26.302Z,0
2017-04-01T01:23:52.386Z,0
2017-04-01T01:24:18.490Z,0
2017-04-01T01:24:44.573Z,0
2017-04-01T01:25:10.678Z,0
2017-04-01T01:25:36.757Z,0
2017-04-01T01:26:02.840Z,0
2017-04-01T01:26:28.921Z,0
2017-04-01T01:26:55.001Z,0
2017-04-01T01:27:21.083Z,0
2017-04-01T01:27:47.166Z,0
2017-04-01T01:28:13.247Z,0
2017-04-01T01:28:39.329Z,0
2017-04-01T01:29:05.412Z,0
2017-04-01T01:29:31.495Z,0
2017-04-01T01:29:57.577Z,0
2017-04-01T01:30:23.662Z,0
2017-04-01T01:30:49.743Z,0
2017-04-01T01:31:15.823Z,0
2017-04-01T01:31:41.929Z,0
2017-04-01T01:32:08.008Z,0
2017-04-01T01:32:34.115Z,0
2017-04-01T01:33:00.222Z,0
2017-04-01T01:33:26.302Z,0
2017-04-01T01:33:52.383Z,0
2017-04-01T01:34:18.465Z,0
2017-04-01T01:34:44.548Z,0
2017-04-01T01:35:10.629Z,0
2017-04-01T01:35:36.712Z,0
2017-04-01T01:36:02.796Z,0
2017-04-01T01:36:28.899Z,0
2017-04-01T01:36:54.985Z,0
2017-04-01T01:37:21.137Z,0
2017-04-01T01:37:47.238Z,0
2017-04-01T01:38:13.320Z,0
2017-04-01T01:38:39.402Z,0
2017-04-01T01:39:05.483Z,0
2017-04-01T01:39:31.565Z,0
2017-04-01T01:39:57.647Z,0
2017-04-01T01:40:23.731Z,0
2017-04-01T01:40:49.831Z,0
2017-04-01T01:41:15.911Z,0
2017-04-01T01:41:41.993Z,0
2017-04-01T01:42:08.077Z,0
2017-04-01T01:42:34.226Z,0
2017-04-01T01:43:00.307Z,0
2017-04-01T01:43:26.389Z,0
2017-04-01T01:43:52.471Z,0
2017-04-01T01:44:18.555Z,0
2017-04-01T01:44:44.636Z,0
2017-04-01T01:45:10.718Z,0
2017-04-01T01:45:36.799Z,0
2017-04-01T01:46:02.880Z,0
2017-04-01T01:46:28.964Z,0
2017-04-01T01:46:55.068Z,0
2017-04-01T01:47:21.149Z,0
2017-04-01T01:47:47.253Z,0
2017-04-01T01:48:13.334Z,0
2017-04-01T01:48:39.417Z,0
2017-04-01T01:49:05.500Z,0
2017-04-01T01:49:31.580Z,0
2017-04-01T01:49:57.661Z,0
2017-04-01T01:50:23.742Z,0
2017-04-01T01:50:49.869Z,0
2017-04-01T01:51:15.951Z,0
2017-04-01T01:51:42.032Z,0
2017-04-01T01:52:08.135Z,0
2017-04-01T01:52:34.216Z,0
2017-04-01T01:53:00.321Z,0
2017-04-01T01:53:26.404Z,0
2017-04-01T01:53:52.487Z,0
2017-04-01T01:54:18.593Z,0
2017-04-01T01:54:44.675Z,0
2017-04-01T01:55:10.760Z,0
2017-04-01T01:55:36.841Z,0
2017-04-01T01:56:02.926Z,0
2017-04-01T01:56:29.006Z,0
2017-04-01T01:56:55.089Z,0
2017-04-01T01:57:21.172Z,0
2017-04-01T01:57:47.253Z,0
2017-04-01T01:58:13.334Z,0
2017-04-01T01:58:39.415Z,0
2017-04-01T01:59:05.518Z,0
2017-04-01T01:59:31.599Z,0
2017-04-01T01:59:57.684Z,0
2017-04-01T02:00:23.764Z,0
2017-04-01T02:00:49.846Z,0
2017-04-01T02:01:15.930Z,0
2017-04-01T02:01:42.035Z,0
2017-04-01T02:02:08.118Z,0
2017-04-01T02:02:34.236Z,0
2017-04-01T02:03:00.284Z,0
2017-04-01T02:03:26.366Z,0
2017-04-01T02:03:52.449Z,0
2017-04-01T02:04:18.530Z,0
2017-04-01T02:04:44.612Z,0
2017-04-01T02:05:10.717Z,0
2017-04-01T02:05:36.798Z,0
2017-04-01T02:06:02.881Z,0
2017-04-01T02:06:28.986Z,0
2017-04-01T02:06:55.068Z,0
2017-04-01T02:07:21.150Z,0
2017-04-01T02:07:47.230Z,0
2017-04-01T02:08:13.311Z,0
2017-04-01T02:08:39.394Z,0
2017-04-01T02:09:05.477Z,0
2017-04-01T02:09:31.560Z,0
2017-04-01T02:09:57.665Z,0
2017-04-01T02:10:23.747Z,0
2017-04-01T02:10:49.850Z,0
2017-04-01T02:11:15.931Z,0
2017-04-01T02:11:42.013Z,0
2017-04-01T02:12:08.117Z,0
2017-04-01T02:12:34.199Z,0
2017-04-01T02:13:00.280Z,0
2017-04-01T02:13:26.364Z,0
2017-04-01T02:13:52.446Z,0
2017-04-01T02:14:18.528Z,0
2017-04-01T02:14:44.632Z,0
2017-04-01T02:15:10.715Z,0
2017-04-01T02:15:36.796Z,0
2017-04-01T02:16:02.877Z,0
2017-04-01T02:16:28.960Z,0
2017-04-01T02:16:55.088Z,0
2017-04-01T02:17:21.169Z,0
2017-04-01T02:17:47.254Z,0
2017-04-01T02:18:13.334Z,0
2017-04-01T02:18:39.416Z,0
2017-04-01T02:19:05.497Z,0
2017-04-01T02:19:31.580Z,0
2017-04-01T02:19:57.659Z,0
2017-04-01T02:20:23.765Z,0
2017-04-01T02:20:49.896Z,0
2017-04-01T02:21:16.001Z,0
2017-04-01T02:21:42.082Z,0
2017-04-01T02:22:08.189Z,0
2017-04-01T02:22:34.270Z,0
2017-04-01T02:23:00.349Z,0
2017-04-01T02:23:26.430Z,0
2017-04-01T02:23:52.511Z,0
2017-04-01T02:24:18.592Z,0
2017-04-01T02:24:44.676Z,0
2017-04-01T02:25:10.758Z,0
2017-04-01T02:25:36.839Z,0
2017-04-01T02:26:02.945Z,0
2017-04-01T02:26:29.026Z,0
2017-04-01T02:26:55.109Z,0
2017-04-01T02:27:21.189Z,0
2017-04-01T02:27:47.273Z,0
2017-04-01T02:28:13.356Z,0
2017-04-01T02:28:39.438Z,0
2017-04-01T02:29:05.517Z,0
2017-04-01T02:29:31.600Z,0
2017-04-01T02:29:57.681Z,0
2017-04-01T02:30:23.760Z,0
2017-04-01T02:30:49.845Z,0
2017-04-01T02:31:15.948Z,0
2017-04-01T02:31:42.029Z,0
2017-04-01T02:32:08.113Z,0
2017-04-01T02:32:34.193Z,0
2017-04-01T02:33:00.297Z,0
2017-04-01T02:33:26.378Z,0
2017-04-01T02:33:52.480Z,0
2017-04-01T02:34:18.563Z,0
2017-04-01T02:34:44.664Z,0
2017-04-01T02:35:10.749Z,0
2017-04-01T02:35:36.832Z,0
2017-04-01T02:36:02.933Z,0
2017-04-01T02:36:29.036Z,0
2017-04-01T02:36:55.164Z,0
2017-04-01T02:37:21.244Z,0
2017-04-01T02:37:47.327Z,0
2017-04-01T02:38:13.410Z,0
2017-04-01T02:38:39.492Z,0
2017-04-01T02:39:05.572Z,0
2017-04-01T02:39:31.654Z,0
2017-04-01T02:39:57.758Z,0
2017-04-01T02:40:23.841Z,0
2017-04-01T02:40:49.921Z,0
2017-04-01T02:41:16.026Z,0
2017-04-01T02:41:42.105Z,0
2017-04-01T02:42:08.185Z,0
2017-04-01T02:42:34.266Z,0
2017-04-01T02:43:00.405Z,0
2017-04-01T02:43:26.451Z,0
2017-04-01T02:43:52.534Z,0
2017-04-01T02:44:18.618Z,0
2017-04-01T02:44:44.702Z,0
2017-04-01T02:45:10.782Z,0
2017-04-01T02:45:36.887Z,0
2017-04-01T02:46:02.967Z,0
2017-04-01T02:46:29.049Z,0
2017-04-01T02:46:55.131Z,0
2017-04-01T02:47:21.214Z,0
2017-04-01T02:47:47.320Z,0
2017-04-01T02:48:13.402Z,0
2017-04-01T02:48:39.485Z,0
2017-04-01T02:49:05.569Z,0
2017-04-01T02:49:31.650Z,0
2017-04-01T02:49:57.732Z,0
2017-04-01T02:50:23.815Z,0
2017-04-01T02:50:49.898Z,0
2017-04-01T02:51:15.980Z,0
2017-04-01T02:51:42.063Z,0
2017-04-01T02:52:08.169Z,0
2017-04-01T02:52:34.253Z,0
2017-04-01T02:53:00.335Z,0
2017-04-01T02:53:26.436Z,0
2017-04-01T02:53:52.523Z,0
2017-04-01T02:54:18.604Z,0
2017-04-01T02:54:44.708Z,0
2017-04-01T02:55:10.789Z,0
2017-04-01T02:55:36.872Z,0
2017-04-01T02:56:02.956Z,0
2017-04-01T02:56:29.038Z,0
2017-04-01T02:56:55.121Z,0
2017-04-01T02:57:21.201Z,0
2017-04-01T02:57:47.286Z,0
2017-04-01T02:58:13.390Z,0
2017-04-01T02:58:39.495Z,0
2017-04-01T02:59:05.598Z,0
2017-04-01T02:59:31.680Z,0
2017-04-01T02:59:57.764Z,0
2017-04-01T03:00:23.870Z,0
2017-04-01T03:00:49.954Z,0
2017-04-01T03:01:16.038Z,0
2017-04-01T03:01:42.144Z,0
2017-04-01T03:02:08.250Z,0
2017-04-01T03:02:34.333Z,0
2017-04-01T03:03:00.415Z,0
2017-04-01T03:03:26.496Z,0
2017-04-01T03:03:52.578Z,0
2017-04-01T03:04:18.685Z,0
2017-04-01T03:04:44.766Z,0
2017-04-01T03:05:10.870Z,0
2017-04-01T03:05:36.954Z,0
2017-04-01T03:06:03.058Z,0
2017-04-01T03:06:29.141Z,0
2017-04-01T03:06:55.222Z,0
2017-04-01T03:07:21.308Z,0
2017-04-01T03:07:47.412Z,0
2017-04-01T03:08:13.496Z,0
2017-04-01T03:08:39.622Z,0
2017-04-01T03:09:05.731Z,0
2017-04-01T03:09:31.814Z,0
2017-04-01T03:09:57.898Z,0
2017-04-01T03:10:23.980Z,0
2017-04-01T03:10:50.066Z,0
2017-04-01T03:11:16.147Z,0
2017-04-01T03:11:42.230Z,0
2017-04-01T03:12:08.310Z,0
2017-04-01T03:12:34.392Z,0
2017-04-01T03:13:00.473Z,0
2017-04-01T03:13:26.555Z,0
2017-04-01T03:13:52.638Z,0
2017-04-01T03:14:18.746Z,0
2017-04-01T03:14:44.827Z,0
2017-04-01T03:15:10.911Z,0
2017-04-01T03:15:36.991Z,0
2017-04-01T03:16:03.072Z,0
2017-04-01T03:16:29.154Z,0
2017-04-01T03:16:55.237Z,0
2017-04-01T03:17:21.320Z,0
2017-04-01T03:17:47.425Z,0
2017-04-01T03:18:13.504Z,0
2017-04-01T03:18:39.588Z,0
2017-04-01T03:19:05.668Z,0
2017-04-01T03:19:31.749Z,0
2017-04-01T03:19:57.833Z,0
2017-04-01T03:20:23.916Z,0
2017-04-01T03:20:49.998Z,0
2017-04-01T03:21:16.103Z,0
2017-04-01T03:21:42.232Z,0
2017-04-01T03:22:08.316Z,0
2017-04-01T03:22:34.397Z,0
2017-04-01T03:23:00.476Z,0
2017-04-01T03:23:26.579Z,0
2017-04-01T03:23:52.661Z,0
2017-04-01T03:24:18.745Z,0
2017-04-01T03:24:44.831Z,0
2017-04-01T03:25:10.911Z,0
2017-04-01T03:25:36.993Z,0
2017-04-01T03:26:03.097Z,0
2017-04-01T03:26:29.177Z,0
2017-04-01T03:26:55.258Z,0
2017-04-01T03:27:21.374Z,0
2017-04-01T03:27:47.421Z,0
2017-04-01T03:28:13.503Z,0
2017-04-01T03:28:39.585Z,0
2017-04-01T03:29:05.666Z,0
2017-04-01T03:29:31.770Z,0
2017-04-01T03:29:57.853Z,0
2017-04-01T03:30:23.933Z,0
2017-04-01T03:30:50.015Z,0
2017-04-01T03:31:16.096Z,0
2017-04-01T03:31:42.175Z,0
2017-04-01T03:32:08.259Z,0
2017-04-01T03:32:34.341Z,0
2017-04-01T03:33:00.426Z,0
2017-04-01T03:33:26.506Z,0
2017-04-01T03:33:52.588Z,0
2017-04-01T03:34:18.669Z,0
2017-04-01T03:34:44.775Z,0
2017-04-01T03:35:10.855Z,0
2017-04-01T03:35:36.957Z,0
2017-04-01T03:36:03.037Z,0
2017-04-01T03:36:29.118Z,0
2017-04-01T03:36:55.199Z,0
2017-04-01T03:37:21.283Z,0
2017-04-01T03:37:47.363Z,0
2017-04-01T03:38:13.467Z,0
2017-04-01T03:38:39.570Z,0
2017-04-01T03:39:05.652Z,0
2017-04-01T03:39:31.734Z,0
2017-04-01T03:39:57.814Z,0
2017-04-01T03:40:23.896Z,0
2017-04-01T03:40:49.978Z,0
2017-04-01T03:41:16.085Z,0
2017-04-01T03:41:42.187Z,0
2017-04-01T03:42:08.270Z,0
2017-04-01T03:42:34.351Z,0
2017-04-01T03:43:00.438Z,0
2017-04-01T03:43:26.538Z,0
2017-04-01T03:43:52.621Z,0
2017-04-01T03:44:18.702Z,0
2017-04-01T03:44:44.806Z,0
2017-04-01T03:45:10.888Z,0
2017-04-01T03:45:36.972Z,0
2017-04-01T03:46:03.051Z,0
2017-04-01T03:46:29.134Z,0
2017-04-01T03:46:55.217Z,0
2017-04-01T03:47:21.298Z,0
2017-04-01T03:47:47.380Z,0
2017-04-01T03:48:13.460Z,0
2017-04-01T03:48:39.541Z,0
2017-04-01T03:49:05.627Z,0
2017-04-01T03:49:31.728Z,0
2017-04-01T03:52:46.953Z,0
2017-04-01T03:53:13.059Z,0
2017-04-01T03:53:39.145Z,0
2017-04-01T03:54:05.229Z,0
2017-04-01T03:54:31.313Z,0
2017-04-01T03:54:57.398Z,0
2017-04-01T03:55:23.480Z,0
2017-04-01T03:55:49.565Z,0
2017-04-01T03:56:15.649Z,0
2017-04-01T03:56:41.733Z,0
2017-04-01T03:57:07.817Z,0
2017-04-01T03:57:33.902Z,0
2017-04-01T03:57:59.986Z,0
2017-04-01T03:58:26.069Z,0
2017-04-01T03:58:52.152Z,0
2017-04-01T03:59:18.235Z,0
2017-04-01T03:59:44.321Z,0
2017-04-01T04:00:10.404Z,0
2017-04-01T04:00:36.510Z,0
2017-04-01T04:01:02.596Z,0
2017-04-01T04:01:28.677Z,0
2017-04-01T04:01:54.763Z,0
2017-04-01T04:02:20.845Z,0
2017-04-01T04:02:47.004Z,0
2017-04-01T04:03:13.089Z,0
2017-04-01T04:03:39.171Z,0
2017-04-01T04:04:05.276Z,0
2017-04-01T04:04:31.363Z,0
2017-04-01T04:04:57.445Z,0
2017-04-01T04:05:23.527Z,0
2017-04-01T04:05:49.634Z,0
2017-04-01T04:06:15.718Z,0
2017-04-01T04:06:41.802Z,0
2017-04-01T04:07:07.886Z,0
2017-04-01T04:07:33.970Z,0
2017-04-01T04:08:00.053Z,0
2017-04-01T04:08:26.161Z,0
2017-04-01T04:08:52.243Z,0
2017-04-01T04:09:18.328Z,0
2017-04-01T04:09:44.438Z,0
2017-04-01T04:10:10.522Z,0
2017-04-01T04:10:36.606Z,0
2017-04-01T04:11:02.691Z,0
2017-04-01T04:11:28.773Z,0
2017-04-01T04:11:54.885Z,0
2017-04-01T04:12:20.968Z,0
2017-04-01T04:12:47.051Z,0
2017-04-01T04:13:13.135Z,0
2017-04-01T04:13:39.216Z,0
2017-04-01T04:14:05.297Z,0
2017-04-01T04:14:31.381Z,0
2017-04-01T04:14:57.465Z,0
2017-04-01T04:15:23.547Z,0
2017-04-01T04:15:49.631Z,0
2017-04-01T04:16:15.717Z,0
2017-04-01T04:16:41.801Z,0
2017-04-01T04:17:07.884Z,0
2017-04-01T04:17:33.968Z,0
2017-04-01T04:18:00.053Z,0
2017-04-01T04:18:26.136Z,0
2017-04-01T04:18:52.240Z,0
2017-04-01T04:19:18.324Z,0
2017-04-01T04:19:44.455Z,0
2017-04-01T04:20:10.537Z,0
2017-04-01T04:20:36.643Z,0
2017-04-01T04:21:02.730Z,0
2017-04-01T04:21:28.836Z,0
2017-04-01T04:21:54.919Z,0
2017-04-01T04:22:21.025Z,0
2017-04-01T04:22:47.111Z,0
2017-04-01T04:23:13.189Z,0
2017-04-01T04:23:39.270Z,0
2017-04-01T04:24:05.352Z,0
2017-04-01T04:24:31.460Z,0
2017-04-01T04:24:57.567Z,0
2017-04-01T04:25:23.653Z,0
2017-04-01T04:25:49.781Z,0
2017-04-01T04:26:15.865Z,0
2017-04-01T04:26:41.947Z,0
2017-04-01T04:27:08.031Z,0
2017-04-01T04:27:34.115Z,0
2017-04-01T04:28:00.199Z,0
2017-04-01T04:28:26.282Z,0
2017-04-01T04:28:52.366Z,0
2017-04-01T04:29:18.453Z,0
2017-04-01T04:29:44.539Z,0
2017-04-01T04:30:10.624Z,0
2017-04-01T04:30:36.708Z,0
2017-04-01T04:31:02.814Z,0
2017-04-01T04:31:28.897Z,0
2017-04-01T04:31:54.983Z,0
2017-04-01T04:32:21.068Z,4
2017-04-01T04:32:47.153Z,4
2017-04-01T04:33:13.389Z,4
2017-04-01T04:33:39.473Z,4
2017-04-01T04:34:05.580Z,4
2017-04-01T04:34:31.663Z,4
2017-04-01T04:34:57.747Z,4
2017-04-01T04:35:23.830Z,0
2017-04-01T04:35:49.914Z,4
2017-04-01T04:36:15.996Z,4
2017-04-01T04:36:42.082Z,4
2017-04-01T04:37:08.186Z,4
2017-04-01T04:37:34.268Z,4
2017-04-01T04:38:00.352Z,8
2017-04-01T04:38:26.458Z,4
2017-04-01T04:38:52.545Z,4
2017-04-01T04:39:18.627Z,8
2017-04-01T04:39:44.712Z,8
2017-04-01T04:40:10.793Z,8
2017-04-01T04:40:36.876Z,8
2017-04-01T04:41:02.960Z,8
2017-04-01T04:41:29.043Z,12
2017-04-01T04:41:55.150Z,8
2017-04-01T04:42:21.232Z,12
2017-04-01T04:42:47.317Z,12
2017-04-01T04:43:13.432Z,12
2017-04-01T04:43:39.512Z,12
2017-04-01T04:44:05.619Z,16
2017-04-01T04:44:31.702Z,16
2017-04-01T04:44:57.787Z,16
2017-04-01T04:45:23.871Z,20
2017-04-01T04:45:49.982Z,24
2017-04-01T04:46:16.062Z,24
2017-04-01T04:46:42.147Z,24
2017-04-01T04:47:08.229Z,28
2017-04-01T04:47:34.312Z,28
2017-04-01T04:48:00.396Z,32
2017-04-01T04:48:26.479Z,32
2017-04-01T04:48:52.562Z,36
2017-04-01T04:49:18.646Z,40
2017-04-01T04:49:44.731Z,40
2017-04-01T04:50:10.814Z,44
2017-04-01T04:50:36.898Z,48
2017-04-01T04:51:02.981Z,52
2017-04-01T04:51:29.140Z,56
2017-04-01T04:51:55.222Z,60
2017-04-01T04:52:21.306Z,64
2017-04-01T04:52:47.389Z,64
2017-04-01T04:53:13.473Z,68
2017-04-01T04:53:39.581Z,72
2017-04-01T04:54:05.663Z,80
2017-04-01T04:54:31.747Z,80
2017-04-01T04:54:57.832Z,88
2017-04-01T04:55:23.912Z,92
2017-04-01T04:55:49.995Z,96
2017-04-01T04:56:16.077Z,100
2017-04-01T04:56:42.160Z,104
2017-04-01T04:57:08.244Z,112
2017-04-01T04:57:34.328Z,112
2017-04-01T04:58:00.433Z,120
2017-04-01T04:58:26.537Z,128
2017-04-01T04:58:52.643Z,132
2017-04-01T04:59:18.728Z,140
2017-04-01T04:59:44.837Z,144
2017-04-01T05:00:10.945Z,148
2017-04-01T05:00:37.028Z,156
2017-04-01T05:01:03.113Z,164
2017-04-01T05:01:29.196Z,176
2017-04-01T05:01:55.280Z,180
2017-04-01T05:02:21.387Z,192
2017-04-01T05:02:47.470Z,200
2017-04-01T05:03:13.604Z,208
2017-04-01T05:03:39.709Z,220
2017-04-01T05:04:05.793Z,232
2017-04-01T05:04:31.878Z,240
2017-04-01T05:04:57.964Z,248
2017-04-01T05:05:24.059Z,260
2017-04-01T05:05:50.151Z,268
2017-04-01T05:06:16.255Z,280
2017-04-01T05:06:42.362Z,292
2017-04-01T05:07:08.470Z,304
2017-04-01T05:07:34.557Z,316
2017-04-01T05:08:00.666Z,328
2017-04-01T05:08:26.750Z,340
2017-04-01T05:08:52.832Z,352
2017-04-01T05:09:18.940Z,368
2017-04-01T05:09:45.070Z,376
2017-04-01T05:10:11.155Z,392
2017-04-01T05:10:37.264Z,408
2017-04-01T05:11:03.373Z,428
2017-04-01T05:11:29.484Z,444
2017-04-01T05:11:55.613Z,460
2017-04-01T05:12:21.721Z,476
2017-04-01T05:12:47.807Z,496
2017-04-01T05:13:13.891Z,512
2017-04-01T05:13:39.976Z,532
2017-04-01T05:14:06.061Z,552
2017-04-01T05:14:32.165Z,568
2017-04-01T05:14:58.249Z,592
2017-04-01T05:15:24.336Z,612
2017-04-01T05:15:50.423Z,628
2017-04-01T05:16:16.506Z,652
2017-04-01T05:16:42.611Z,676
2017-04-01T05:17:08.695Z,696
2017-04-01T05:17:34.779Z,728
2017-04-01T05:18:00.864Z,752
2017-04-01T05:18:26.951Z,780
2017-04-01T05:18:53.034Z,804
2017-04-01T05:19:19.118Z,836
2017-04-01T05:19:45.202Z,864
2017-04-01T05:20:11.286Z,900
2017-04-01T05:20:37.370Z,928
2017-04-01T05:21:03.452Z,964
2017-04-01T05:21:29.582Z,1000
2017-04-01T05:21:55.665Z,1040
2017-04-01T05:22:21.747Z,1076
2017-04-01T05:22:47.831Z,1116
2017-04-01T05:23:13.912Z,1156
2017-04-01T05:23:39.993Z,1196
2017-04-01T05:24:06.077Z,1232
2017-04-01T05:24:32.164Z,1276
2017-04-01T05:24:58.246Z,1312
2017-04-01T05:25:24.330Z,1356
2017-04-01T05:25:50.415Z,1392
2017-04-01T05:26:16.497Z,1436
2017-04-01T05:26:42.606Z,1472
2017-04-01T05:27:08.691Z,1512
2017-04-01T05:27:34.778Z,1552
2017-04-01T05:28:00.862Z,1588
2017-04-01T05:28:26.943Z,1632
2017-04-01T05:28:53.029Z,1676
2017-04-01T05:29:19.113Z,1716
2017-04-01T05:29:45.199Z,1764
2017-04-01T05:30:11.281Z,1808
2017-04-01T05:30:37.366Z,1852
2017-04-01T05:31:03.450Z,1896
2017-04-01T05:31:29.530Z,1940
2017-04-01T05:31:55.639Z,1984
2017-04-01T05:32:21.730Z,2028
2017-04-01T05:32:47.828Z,2076
2017-04-01T05:33:13.913Z,2128
2017-04-01T05:33:39.994Z,2172
2017-04-01T05:34:06.079Z,2216
2017-04-01T05:34:32.161Z,2264
2017-04-01T05:34:58.268Z,2304
2017-04-01T05:35:24.354Z,2344
2017-04-01T05:35:50.437Z,2380
2017-04-01T05:36:16.546Z,2416
2017-04-01T05:36:42.629Z,2456
2017-04-01T05:37:08.714Z,2492
2017-04-01T05:37:34.798Z,2536
2017-04-01T05:38:00.881Z,2576
2017-04-01T05:38:26.966Z,2624
2017-04-01T05:38:53.075Z,2672
2017-04-01T05:39:19.159Z,2720
2017-04-01T05:39:45.241Z,2768
2017-04-01T05:40:11.348Z,2820
2017-04-01T05:40:37.431Z,2872
2017-04-01T05:41:03.538Z,2924
2017-04-01T05:41:29.624Z,2980
2017-04-01T05:41:55.730Z,3032
2017-04-01T05:42:21.813Z,3080
2017-04-01T05:42:47.897Z,3124
2017-04-01T05:43:13.979Z,3172
2017-04-01T05:43:40.065Z,3224
2017-04-01T05:44:06.148Z,3272
2017-04-01T05:44:32.234Z,3320
2017-04-01T05:44:58.317Z,3364
2017-04-01T05:45:24.402Z,3408
2017-04-01T05:45:50.510Z,3444
2017-04-01T05:46:16.619Z,3484
2017-04-01T05:46:42.704Z,3516
2017-04-01T05:47:08.810Z,3556
2017-04-01T05:47:34.893Z,3604
2017-04-01T05:48:00.975Z,3652
2017-04-01T05:48:27.060Z,3712
2017-04-01T05:48:53.145Z,3768
2017-04-01T05:49:19.238Z,3820
2017-04-01T05:49:45.320Z,3876
2017-04-01T05:50:11.427Z,3928
2017-04-01T05:50:37.512Z,3984
2017-04-01T05:51:03.597Z,4052
2017-04-01T05:51:29.681Z,4108
2017-04-01T05:51:55.803Z,4172
2017-04-01T05:52:21.904Z,4240
2017-04-01T05:52:47.982Z,4308
2017-04-01T05:53:14.066Z,4380
2017-04-01T05:53:40.151Z,4452
2017-04-01T05:54:06.233Z,4524
2017-04-01T05:54:32.316Z,4592
2017-04-01T05:54:58.401Z,4656
2017-04-01T05:55:24.483Z,4720
2017-04-01T05:55:50.612Z,4796
2017-04-01T05:56:16.692Z,4872
2017-04-01T05:56:42.780Z,4964
2017-04-01T05:57:08.860Z,5076
2017-04-01T05:57:34.945Z,5216
2017-04-01T05:58:01.028Z,5368
2017-04-01T05:58:27.114Z,5540
2017-04-01T05:58:53.381Z,5716
2017-04-01T05:59:19.489Z,5896
2017-04-01T05:59:45.573Z,6096
2017-04-01T06:00:11.657Z,6312
2017-04-01T06:00:37.741Z,6520
2017-04-01T06:01:03.825Z,6748
2017-04-01T06:01:29.910Z,6968
2017-04-01T06:01:55.995Z,7116
2017-04-01T06:02:22.080Z,7204
2017-04-01T06:02:48.188Z,7252
2017-04-01T06:03:14.271Z,7340
2017-04-01T06:03:40.380Z,7564
2017-04-01T06:04:06.462Z,7820
2017-04-01T06:04:32.547Z,8016
2017-04-01T06:04:58.632Z,8132
2017-04-01T06:05:24.716Z,8164
2017-04-01T06:05:50.797Z,8196
2017-04-01T06:06:16.906Z,8264
2017-04-01T06:06:43.012Z,8340
2017-04-01T06:07:09.098Z,8416
2017-04-01T06:07:35.208Z,8420
2017-04-01T06:08:01.290Z,8440
2017-04-01T06:08:27.376Z,8472
2017-04-01T06:08:53.459Z,8440
2017-04-01T06:09:19.545Z,8396
2017-04-01T06:09:45.630Z,8364
2017-04-01T06:10:11.715Z,8420
2017-04-01T06:10:37.799Z,8524
2017-04-01T06:11:03.882Z,8580
2017-04-01T06:11:29.965Z,8556
2017-04-01T06:11:56.047Z,8484
2017-04-01T06:12:22.132Z,8376
2017-04-01T06:12:48.215Z,8288
2017-04-01T06:13:14.298Z,8176
2017-04-01T06:13:40.383Z,8004
2017-04-01T06:14:06.767Z,7864
2017-04-01T06:14:32.854Z,7772
2017-04-01T06:14:58.937Z,7708
2017-04-01T06:15:25.044Z,7644
2017-04-01T06:15:51.128Z,7612
2017-04-01T06:16:17.213Z,7596
2017-04-01T06:16:43.294Z,7592
2017-04-01T06:17:09.380Z,7640
2017-04-01T06:17:35.486Z,7704
2017-04-01T06:18:01.569Z,7780
2017-04-01T06:18:27.656Z,7836
2017-04-01T06:18:53.739Z,7896
2017-04-01T06:19:19.825Z,7948
2017-04-01T06:19:45.909Z,7992